createdAt,value
2023-05-01T00:02:28.117Z,2.20
2023-05-01T00:04:56.447Z,2.40
2023-05-01T00:07:25.380Z,2.30
2023-05-01T00:09:53.415Z,2.83
2023-05-01T00:12:21.314Z,2.80
2023-05-01T00:14:49.180Z,2.20
2023-05-01T00:17:17.352Z,2.67
2023-05-01T00:19:46.757Z,2.60
2023-05-01T00:22:14.879Z,2.58
2023-05-01T00:24:42.852Z,2.58
2023-05-01T00:27:10.892Z,2.72
2023-05-01T00:29:38.892Z,3.42
2023-05-01T00:32:07.786Z,2.22
2023-05-01T00:34:35.888Z,2.80
2023-05-01T00:37:05.150Z,3.05
2023-05-01T00:39:33.057Z,2.65
2023-05-01T00:42:00.980Z,2.33
2023-05-01T00:44:29.000Z,2.78
2023-05-01T00:47:00.168Z,2.30
2023-05-01T00:49:28.382Z,2.45
2023-05-01T00:51:56.450Z,2.28
2023-05-01T00:54:27.644Z,2.20
2023-05-01T00:56:56.383Z,2.28
2023-05-01T00:59:24.571Z,2.10
2023-05-01T01:01:54.967Z,1.92
2023-05-01T01:04:24.213Z,1.70
2023-05-01T01:07:05.470Z,1.60
2023-05-01T01:09:43.748Z,2.00
2023-05-01T01:12:19.097Z,1.77
2023-05-01T01:14:54.236Z,1.80
2023-05-01T01:17:30.247Z,1.75
2023-05-01T01:20:30.225Z,1.95
2023-05-01T01:23:09.645Z,1.65
2023-05-01T01:26:04.530Z,2.25
2023-05-01T01:29:03.800Z,1.77
2023-05-01T01:31:36.282Z,1.90
2023-05-01T01:34:14.328Z,2.00
2023-05-01T01:36:47.583Z,1.70
2023-05-01T01:39:25.865Z,1.92
2023-05-01T01:41:55.726Z,1.55
2023-05-01T01:44:29.649Z,1.90
2023-05-01T01:46:59.409Z,2.05
2023-05-01T01:49:30.539Z,2.10
2023-05-01T01:52:00.310Z,2.28
2023-05-01T01:54:34.077Z,2.05
2023-05-01T01:57:04.230Z,2.15
2023-05-01T01:59:34.720Z,2.20
2023-05-01T02:02:04.233Z,2.28
2023-05-01T02:04:35.012Z,2.13
2023-05-01T02:07:04.689Z,2.33
2023-05-01T02:09:33.748Z,2.03
2023-05-01T02:12:03.631Z,2.30
2023-05-01T02:14:32.883Z,2.70
2023-05-01T02:17:00.962Z,2.55
2023-05-01T02:19:29.411Z,2.53
2023-05-01T02:22:00.623Z,2.58
2023-05-01T02:24:30.419Z,2.92
2023-05-01T02:27:03.397Z,2.45
2023-05-01T02:29:31.369Z,2.38
2023-05-01T02:31:59.494Z,2.45
2023-05-01T02:34:27.891Z,2.60
2023-05-01T02:36:56.016Z,2.42
2023-05-01T02:39:25.722Z,2.85
2023-05-01T02:41:58.402Z,2.47
2023-05-01T02:44:28.917Z,2.63
2023-05-01T02:46:58.426Z,2.60
2023-05-01T02:49:27.118Z,2.10
2023-05-01T02:51:55.426Z,2.78
2023-05-01T02:54:25.201Z,2.92
2023-05-01T02:56:53.855Z,2.80
2023-05-01T02:59:21.990Z,2.97
2023-05-01T03:01:50.138Z,2.85
2023-05-01T03:04:18.341Z,2.70
2023-05-01T03:06:46.795Z,2.78
2023-05-01T03:09:15.100Z,3.85
2023-05-01T03:11:44.717Z,3.17
2023-05-01T03:14:12.872Z,3.50
2023-05-01T03:16:41.337Z,2.88
2023-05-01T03:19:09.388Z,3.08
2023-05-01T03:21:37.510Z,3.13
2023-05-01T03:24:06.213Z,2.97
2023-05-01T03:26:34.326Z,2.90
2023-05-01T03:29:03.793Z,2.63
2023-05-01T03:31:31.971Z,2.90
2023-05-01T03:34:00.140Z,2.83
2023-05-01T03:36:29.881Z,3.03
2023-05-01T03:38:58.072Z,3.10
2023-05-01T03:41:26.431Z,2.72
2023-05-01T03:43:54.447Z,2.95
2023-05-01T03:46:24.190Z,2.95
2023-05-01T03:48:52.404Z,3.15
2023-05-01T03:51:20.567Z,2.95
2023-05-01T03:53:48.707Z,2.67
2023-05-01T03:56:17.001Z,3.08
2023-05-01T03:58:45.246Z,3.17
2023-05-01T04:01:13.581Z,3.08
2023-05-01T04:03:43.160Z,3.72
2023-05-01T04:06:11.730Z,2.90
2023-05-01T04:08:40.104Z,2.85
2023-05-01T04:11:08.251Z,2.95
2023-05-01T04:13:36.559Z,2.75
2023-05-01T04:16:04.836Z,3.15
2023-05-01T04:18:33.010Z,3.55
2023-05-01T04:21:02.667Z,3.20
2023-05-01T04:23:30.844Z,2.92
2023-05-01T04:25:59.151Z,2.75
2023-05-01T04:28:27.941Z,3.03
2023-05-01T04:30:56.251Z,3.22
2023-05-01T04:33:24.347Z,3.10
2023-05-01T04:35:52.462Z,3.03
2023-05-01T04:38:22.033Z,3.13
2023-05-01T04:40:50.111Z,3.92
2023-05-01T04:43:18.190Z,2.75
2023-05-01T04:45:46.319Z,3.10
2023-05-01T04:48:14.486Z,3.10
2023-05-01T04:50:42.586Z,2.95
2023-05-01T04:53:10.758Z,3.50
2023-05-01T04:55:40.445Z,3.22
2023-05-01T04:58:08.542Z,2.83
2023-05-01T05:00:37.004Z,2.88
2023-05-01T05:03:05.291Z,2.85
2023-05-01T05:05:33.759Z,2.75
2023-05-01T05:08:02.423Z,2.97
2023-05-01T05:10:30.566Z,3.22
2023-05-01T05:13:00.184Z,2.97
2023-05-01T05:15:28.519Z,3.60
2023-05-01T05:17:56.840Z,2.95
2023-05-01T05:20:24.924Z,3.08
2023-05-01T05:22:52.978Z,2.72
2023-05-01T05:25:21.290Z,3.00
2023-05-01T05:27:49.779Z,3.47
2023-05-01T05:30:19.540Z,3.20
2023-05-01T05:32:48.372Z,2.80
2023-05-01T05:35:16.477Z,3.05
2023-05-01T05:37:46.059Z,3.33
2023-05-01T05:40:39.368Z,3.42
2023-05-01T05:43:12.441Z,3.80
2023-05-01T05:45:42.211Z,3.33
2023-05-01T05:48:10.314Z,3.45
2023-05-01T05:50:38.506Z,3.15
2023-05-01T05:53:06.523Z,3.28
2023-05-01T05:55:34.420Z,3.33
2023-05-01T05:58:02.525Z,3.20
2023-05-01T06:00:30.749Z,3.28
2023-05-01T06:03:02.841Z,3.05
2023-05-01T06:05:31.297Z,2.72
2023-05-01T06:07:59.180Z,2.83
2023-05-01T06:10:27.288Z,3.30
2023-05-01T06:12:59.306Z,4.50
2023-05-01T06:15:35.563Z,3.22
2023-05-01T06:18:05.681Z,3.35
2023-05-01T06:20:33.959Z,2.83
2023-05-01T06:23:02.011Z,2.85
2023-05-01T06:25:30.130Z,3.45
2023-05-01T06:27:58.285Z,3.00
2023-05-01T06:30:26.253Z,3.33
2023-05-01T06:32:54.386Z,2.78
2023-05-01T06:35:23.994Z,2.58
2023-05-01T06:38:00.335Z,2.70
2023-05-01T06:40:28.669Z,3.55
2023-05-01T06:42:57.124Z,2.80
2023-05-01T06:45:25.089Z,3.67
2023-05-01T06:47:53.132Z,3.10
2023-05-01T06:50:21.317Z,3.15
2023-05-01T06:52:53.695Z,2.35
2023-05-01T06:55:22.115Z,3.00
2023-05-01T06:57:50.013Z,2.97
2023-05-01T07:00:19.397Z,3.50
2023-05-01T07:02:47.514Z,3.08
2023-05-01T07:05:15.463Z,2.97
2023-05-01T07:07:57.837Z,3.20
2023-05-01T07:10:30.788Z,3.17
2023-05-01T07:12:58.900Z,2.97
2023-05-01T07:15:53.872Z,3.22
2023-05-01T07:21:23.942Z,3.03
2023-05-01T07:23:51.939Z,2.88
2023-05-01T07:26:23.740Z,3.28
2023-05-01T07:28:51.677Z,3.35
2023-05-01T07:31:19.957Z,3.03
2023-05-01T07:33:49.088Z,2.90
2023-05-01T07:36:22.079Z,3.25
2023-05-01T07:38:51.905Z,2.97
2023-05-01T07:41:19.792Z,3.33
2023-05-01T07:43:47.758Z,3.38
2023-05-01T07:46:15.782Z,3.70
2023-05-01T07:48:44.377Z,3.90
2023-05-01T07:51:12.436Z,3.75
2023-05-01T07:53:42.113Z,4.28
2023-05-01T07:56:11.591Z,3.67
2023-05-01T07:58:41.006Z,3.92
2023-05-01T08:01:09.342Z,3.78
2023-05-01T08:03:37.557Z,3.88
2023-05-01T08:06:06.091Z,4.00
2023-05-01T08:08:34.138Z,3.85
2023-05-01T08:11:02.331Z,4.60
2023-05-01T08:13:31.892Z,4.57
2023-05-01T08:16:02.453Z,4.07
2023-05-01T08:18:30.765Z,3.67
2023-05-01T08:20:58.697Z,3.78
2023-05-01T08:23:26.677Z,3.78
2023-05-01T08:25:54.661Z,4.05
2023-05-01T08:28:24.459Z,3.88
2023-05-01T08:30:53.788Z,3.47
2023-05-01T08:33:21.835Z,4.10
2023-05-01T08:35:50.202Z,4.10
2023-05-01T08:38:18.230Z,3.70
2023-05-01T08:40:52.494Z,4.07
2023-05-01T08:43:20.871Z,3.95
2023-05-01T08:45:49.693Z,3.47
2023-05-01T08:48:20.195Z,3.42
2023-05-01T08:50:49.593Z,3.50
2023-05-01T08:53:19.826Z,3.28
2023-05-01T08:55:49.546Z,3.95
2023-05-01T08:58:19.551Z,3.78
2023-05-01T09:00:48.583Z,3.35
2023-05-01T09:03:17.953Z,3.72
2023-05-01T09:05:47.618Z,3.53
2023-05-01T09:08:15.715Z,3.22
2023-05-01T09:10:47.795Z,3.28
2023-05-01T09:13:15.965Z,3.13
2023-05-01T09:15:44.409Z,3.05
2023-05-01T09:18:13.181Z,3.42
2023-05-01T09:20:44.884Z,3.58
2023-05-01T09:23:14.274Z,3.95
2023-05-01T09:25:42.792Z,3.15
2023-05-01T09:28:10.828Z,4.07
2023-05-01T09:30:39.983Z,3.13
2023-05-01T09:33:09.590Z,3.60
2023-05-01T09:35:54.530Z,3.50
2023-05-01T09:38:25.590Z,3.80
2023-05-01T09:40:56.443Z,3.15
2023-05-01T09:43:28.560Z,3.25
2023-05-01T09:46:05.219Z,3.15
2023-05-01T09:48:35.690Z,3.13
2023-05-01T09:51:21.505Z,2.67
2023-05-01T09:53:51.462Z,3.00
2023-05-01T09:56:20.445Z,3.30
2023-05-01T09:58:48.919Z,3.40
2023-05-01T10:01:18.069Z,3.33
2023-05-01T10:03:46.945Z,3.40
2023-05-01T10:06:28.817Z,3.10
2023-05-01T10:08:58.424Z,3.33
2023-05-01T10:11:26.830Z,2.90
2023-05-01T10:14:09.123Z,2.95
2023-05-01T10:16:38.663Z,2.83
2023-05-01T10:19:07.745Z,3.30
2023-05-01T10:21:36.359Z,3.30
2023-05-01T10:24:07.823Z,3.58
2023-05-01T10:26:36.262Z,3.80
2023-05-01T10:29:05.532Z,3.33
2023-05-01T10:31:33.792Z,3.70
2023-05-01T10:34:02.926Z,3.40
2023-05-01T10:36:37.613Z,3.55
2023-05-01T10:39:07.105Z,3.83
2023-05-01T10:42:03.608Z,3.35
2023-05-01T10:44:32.232Z,3.45
2023-05-01T10:47:00.248Z,3.05
2023-05-01T10:50:07.242Z,3.55
2023-05-01T10:53:08.415Z,3.20
2023-05-01T10:55:38.681Z,3.58
2023-05-01T10:58:06.734Z,3.30
2023-05-01T11:00:34.782Z,3.58
2023-05-01T11:03:40.298Z,3.20
2023-05-01T11:06:09.327Z,4.03
2023-05-01T11:08:38.883Z,3.63
2023-05-01T11:11:44.189Z,3.22
2023-05-01T11:14:13.676Z,3.20
2023-05-01T11:16:42.890Z,3.75
2023-05-01T11:19:12.364Z,3.20
2023-05-01T11:21:42.015Z,3.28
2023-05-01T11:24:10.643Z,3.33
2023-05-01T11:26:40.310Z,2.75
2023-05-01T11:29:10.265Z,3.22
2023-05-01T11:31:40.094Z,3.78
2023-05-01T11:34:08.345Z,3.20
2023-05-01T11:36:49.156Z,3.17
2023-05-01T11:39:18.399Z,3.30
2023-05-01T11:41:46.820Z,3.60
2023-05-01T11:44:17.492Z,3.08
2023-05-01T11:46:46.939Z,2.45
2023-05-01T11:49:14.889Z,3.35
2023-05-01T11:51:42.965Z,3.55
2023-05-01T11:54:15.122Z,3.30
2023-05-01T11:56:44.016Z,3.03
2023-05-01T11:59:13.308Z,3.70
2023-05-01T12:01:44.170Z,3.22
2023-05-01T12:04:14.934Z,3.50
2023-05-01T12:06:45.378Z,3.40
2023-05-01T12:09:18.634Z,3.33
2023-05-01T12:11:47.282Z,3.88
2023-05-01T12:14:16.482Z,3.45
2023-05-01T12:16:44.931Z,3.28
2023-05-01T12:19:16.510Z,3.15
2023-05-01T12:21:44.763Z,3.40
2023-05-01T12:24:16.123Z,3.50
2023-05-01T12:26:44.489Z,3.10
2023-05-01T12:29:12.866Z,3.53
2023-05-01T12:31:48.392Z,3.75
2023-05-01T12:34:17.925Z,3.42
2023-05-01T12:36:54.989Z,3.10
2023-05-01T12:39:24.378Z,3.00
2023-05-01T12:41:53.066Z,3.03
2023-05-01T12:44:23.032Z,2.97
2023-05-01T12:46:56.301Z,2.97
2023-05-01T12:49:26.564Z,2.60
2023-05-01T12:51:56.213Z,3.67
2023-05-01T12:54:25.837Z,3.25
2023-05-01T12:56:54.185Z,2.70
2023-05-01T12:59:23.907Z,3.03
2023-05-01T13:01:59.061Z,2.90
2023-05-01T13:04:29.329Z,3.47
2023-05-01T13:06:58.052Z,3.38
2023-05-01T13:09:28.153Z,3.35
2023-05-01T13:12:05.071Z,2.85
2023-05-01T13:14:38.944Z,2.83
2023-05-01T13:17:09.286Z,3.22
2023-05-01T13:19:40.746Z,3.05
2023-05-01T13:22:08.917Z,2.90
2023-05-01T13:24:39.153Z,2.83
2023-05-01T13:27:08.817Z,2.95
2023-05-01T13:29:37.573Z,3.35
2023-05-01T13:32:06.422Z,2.78
2023-05-01T13:34:37.525Z,3.05
2023-05-01T13:37:12.291Z,3.08
2023-05-01T13:39:42.058Z,2.88
2023-05-01T13:42:12.214Z,3.90
2023-05-01T13:44:45.023Z,3.13
2023-05-01T13:47:17.365Z,2.63
2023-05-01T13:49:45.803Z,2.55
2023-05-01T13:52:18.294Z,2.22
2023-05-01T13:54:48.144Z,2.75
2023-05-01T13:57:17.319Z,2.40
2023-05-01T13:59:46.722Z,2.83
2023-05-01T14:02:21.617Z,2.53
2023-05-01T14:04:49.877Z,3.05
2023-05-01T14:07:21.616Z,2.70
2023-05-01T14:09:54.341Z,3.10
2023-05-01T14:12:27.920Z,2.75
2023-05-01T14:14:55.985Z,3.03
2023-05-01T14:17:30.723Z,2.72
2023-05-01T14:19:58.787Z,2.72
2023-05-01T14:22:30.518Z,2.67
2023-05-01T14:24:59.816Z,3.00
2023-05-01T14:27:28.083Z,3.10
2023-05-01T14:29:56.191Z,2.67
2023-05-01T14:32:24.281Z,3.10
2023-05-01T14:34:52.583Z,3.17
2023-05-01T14:37:20.701Z,2.83
2023-05-01T14:39:50.469Z,3.17
2023-05-01T14:42:18.619Z,3.40
2023-05-01T14:44:46.667Z,3.10
2023-05-01T14:47:20.940Z,3.35
2023-05-01T14:49:53.278Z,3.55
2023-05-01T14:54:53.105Z,2.97
2023-05-01T14:57:21.206Z,3.13
2023-05-01T14:59:49.224Z,2.83
2023-05-01T15:02:17.168Z,2.95
2023-05-01T15:04:45.365Z,2.97
2023-05-01T15:07:13.264Z,2.65
2023-05-01T15:09:43.038Z,2.53
2023-05-01T15:12:12.339Z,2.65
2023-05-01T15:14:40.255Z,2.45
2023-05-01T15:17:08.211Z,2.50
2023-05-01T15:19:36.374Z,2.35
2023-05-01T15:22:04.776Z,2.55
2023-05-01T15:24:33.110Z,2.72
2023-05-01T15:27:01.496Z,2.22
2023-05-01T15:29:30.784Z,2.70
2023-05-01T15:32:10.904Z,2.67
2023-05-01T15:34:41.236Z,2.65
2023-05-01T15:37:09.347Z,3.97
2023-05-01T15:39:37.975Z,2.20
2023-05-01T15:42:05.952Z,2.33
2023-05-01T15:44:35.422Z,2.38
2023-05-01T15:47:03.588Z,2.65
2023-05-01T15:49:31.717Z,2.67
2023-05-01T15:51:59.693Z,2.63
2023-05-01T15:54:28.062Z,2.53
2023-05-01T15:56:56.168Z,3.03
2023-05-01T15:59:24.474Z,2.35
2023-05-01T16:01:55.733Z,2.60
2023-05-01T16:04:23.804Z,2.23
2023-05-01T16:06:52.088Z,3.10
2023-05-01T16:09:20.269Z,2.58
2023-05-01T16:11:48.405Z,2.88
2023-05-01T16:14:17.061Z,2.40
2023-05-01T16:16:45.009Z,2.90
2023-05-01T16:19:17.149Z,2.72
2023-05-01T16:21:45.227Z,2.58
2023-05-01T16:24:14.526Z,2.92
2023-05-01T16:26:42.478Z,2.70
2023-05-01T16:29:11.804Z,2.40
2023-05-01T16:31:41.855Z,2.50
2023-05-01T16:34:13.221Z,3.00
2023-05-01T16:36:43.525Z,3.08
2023-05-01T16:39:13.606Z,2.97
2023-05-01T16:41:45.608Z,2.80
2023-05-01T16:44:14.296Z,2.72
2023-05-01T16:46:42.834Z,2.40
2023-05-01T16:49:13.665Z,2.50
2023-05-01T16:51:43.149Z,2.28
2023-05-01T16:54:11.458Z,2.45
2023-05-01T16:56:39.545Z,2.35
2023-05-01T16:59:07.652Z,2.63
2023-05-01T17:01:36.095Z,2.30
2023-05-01T17:04:04.206Z,2.80
2023-05-01T17:06:32.454Z,2.85
2023-05-01T17:09:01.870Z,2.40
2023-05-01T17:11:31.817Z,2.80
2023-05-01T17:14:00.158Z,2.80
2023-05-01T17:16:28.285Z,2.53
2023-05-01T17:18:56.318Z,3.17
2023-05-01T17:21:25.243Z,3.45
2023-05-01T17:23:53.250Z,3.10
2023-05-01T17:26:22.590Z,2.85
2023-05-01T17:28:50.645Z,3.30
2023-05-01T17:31:19.933Z,4.05
2023-05-01T17:33:51.129Z,3.60
2023-05-01T17:36:20.395Z,4.05
2023-05-01T17:38:48.321Z,4.53
2023-05-01T17:41:16.766Z,4.13
2023-05-01T17:43:46.099Z,3.38
2023-05-01T17:46:14.170Z,3.20
2023-05-01T17:48:43.206Z,3.33
2023-05-01T17:51:13.926Z,3.45
2023-05-01T17:53:41.967Z,3.15
2023-05-01T17:56:09.967Z,2.90
2023-05-01T17:58:37.997Z,3.17
2023-05-01T18:01:07.976Z,3.85
2023-05-01T18:03:36.051Z,2.90
2023-05-01T18:06:04.462Z,3.75
2023-05-01T18:08:32.525Z,3.30
2023-05-01T18:11:00.603Z,3.50
2023-05-01T18:13:29.912Z,3.33
2023-05-01T18:15:57.920Z,3.00
2023-05-01T18:18:27.236Z,2.83
2023-05-01T18:20:55.177Z,3.15
2023-05-01T18:23:25.207Z,3.60
2023-05-01T18:25:53.256Z,2.80
2023-05-01T18:28:21.217Z,3.33
2023-05-01T18:30:49.256Z,3.58
2023-05-01T18:33:18.202Z,3.50
2023-05-01T18:35:47.581Z,3.03
2023-05-01T18:38:15.468Z,2.92
2023-05-01T18:40:43.531Z,2.50
2023-05-01T18:43:12.170Z,2.55
2023-05-01T18:45:40.225Z,2.38
2023-05-01T18:48:08.363Z,2.22
2023-05-01T18:50:36.568Z,1.98
2023-05-01T18:53:05.991Z,2.10
2023-05-01T18:55:34.163Z,2.17
2023-05-01T18:58:02.177Z,1.90
2023-05-01T19:00:30.685Z,2.08
2023-05-01T19:02:58.813Z,2.25
2023-05-01T19:05:26.931Z,1.98
2023-05-01T19:07:58.964Z,2.00
2023-05-01T19:10:28.394Z,2.20
2023-05-01T19:12:56.442Z,2.15
2023-05-01T19:15:24.488Z,2.40
2023-05-01T19:17:52.803Z,2.42
2023-05-01T19:20:20.845Z,2.50
2023-05-01T19:22:48.903Z,1.95
2023-05-01T19:25:17.094Z,2.05
2023-05-01T19:27:49.049Z,1.88
2023-05-01T19:30:17.740Z,1.63
2023-05-01T19:32:46.124Z,2.00
2023-05-01T19:35:14.253Z,2.10
2023-05-01T19:37:42.445Z,2.10
2023-05-01T19:40:11.343Z,2.67
2023-05-01T19:42:39.389Z,2.20
2023-05-01T19:45:10.327Z,1.55
2023-05-01T19:47:38.679Z,2.53
2023-05-01T19:50:08.056Z,2.25
2023-05-01T19:52:36.099Z,1.90
2023-05-01T19:55:05.998Z,1.73
2023-05-01T19:57:34.671Z,2.17
2023-05-01T20:00:03.128Z,2.38
2023-05-01T20:02:32.746Z,2.25
2023-05-01T20:05:00.867Z,2.13
2023-05-01T20:07:30.291Z,2.55
2023-05-01T20:09:58.478Z,2.65
2023-05-01T20:12:26.992Z,3.47
2023-05-01T20:14:54.972Z,1.88
2023-05-01T20:17:22.948Z,1.90
2023-05-01T20:19:52.332Z,2.15
2023-05-01T20:22:20.774Z,2.03
2023-05-01T20:24:48.700Z,2.45
2023-05-01T20:27:16.825Z,2.42
2023-05-01T20:29:44.835Z,2.08
2023-05-01T20:32:12.990Z,2.03
2023-05-01T20:34:40.978Z,2.20
2023-05-01T20:37:10.437Z,2.22
2023-05-01T20:39:38.353Z,2.65
2023-05-01T20:42:06.377Z,2.20
2023-05-01T20:44:34.703Z,2.42
2023-05-01T20:47:02.749Z,2.15
2023-05-01T20:49:30.757Z,2.67
2023-05-01T20:51:59.107Z,2.38
2023-05-01T20:54:32.255Z,2.35
2023-05-01T20:57:02.783Z,2.45
2023-05-01T20:59:30.915Z,3.03
2023-05-01T21:01:58.908Z,2.50
2023-05-01T21:04:26.983Z,2.65
2023-05-01T21:06:55.616Z,2.13
2023-05-01T21:09:23.665Z,2.35
2023-05-01T21:11:53.097Z,2.83
2023-05-01T21:14:21.333Z,2.58
2023-05-01T21:16:49.666Z,3.05
2023-05-01T21:19:17.643Z,2.58
2023-05-01T21:21:45.765Z,3.47
2023-05-01T21:24:20.122Z,2.83
2023-05-01T21:26:48.102Z,2.33
2023-05-01T21:29:17.501Z,2.53
2023-05-01T21:31:45.460Z,2.45
2023-05-01T21:34:18.355Z,2.28
2023-05-01T21:36:46.347Z,2.60
2023-05-01T21:39:15.321Z,2.38
2023-05-01T21:41:43.440Z,2.42
2023-05-01T21:44:11.389Z,2.60
2023-05-01T21:46:41.090Z,2.33
2023-05-01T21:49:09.430Z,2.83
2023-05-01T21:51:37.449Z,2.70
2023-05-01T21:54:06.003Z,3.15
2023-05-01T21:56:34.241Z,2.72
2023-05-01T21:59:05.568Z,2.72
2023-05-01T22:01:33.817Z,2.60
2023-05-01T22:04:03.643Z,3.03
2023-05-01T22:06:32.471Z,2.22
2023-05-01T22:09:00.678Z,2.50
2023-05-01T22:11:28.945Z,2.50
2023-05-01T22:13:58.385Z,3.05
2023-05-01T22:16:26.559Z,2.85
2023-05-01T22:18:54.818Z,2.92
2023-05-01T22:21:24.289Z,3.13
2023-05-01T22:23:52.703Z,2.85
2023-05-01T22:26:35.488Z,2.70
2023-05-01T22:29:07.521Z,3.20
2023-05-01T22:31:54.235Z,3.20
2023-05-01T22:34:45.801Z,2.28
2023-05-01T22:37:38.904Z,3.53
2023-05-01T22:49:00.188Z,2.55
2023-05-01T22:51:36.168Z,2.53
2023-05-01T22:54:26.205Z,2.42
2023-05-01T22:57:16.219Z,2.65
2023-05-01T22:59:54.498Z,2.40
2023-05-01T23:02:41.234Z,2.97
2023-05-01T23:05:23.162Z,2.95
2023-05-01T23:08:00.326Z,3.00
2023-05-01T23:10:37.903Z,2.55
2023-05-01T23:13:43.475Z,3.47
2023-05-01T23:16:42.585Z,2.70
2023-05-01T23:19:30.156Z,3.13
2023-05-01T23:22:23.901Z,2.60
2023-05-01T23:25:08.232Z,3.00
2023-05-01T23:27:53.998Z,2.63
2023-05-01T23:30:34.296Z,2.70
2023-05-01T23:33:36.400Z,2.40
2023-05-01T23:36:12.718Z,2.78
2023-05-01T23:38:57.375Z,3.08
2023-05-01T23:41:47.994Z,3.08
2023-05-01T23:44:43.515Z,2.75
2023-05-01T23:47:35.064Z,3.00
2023-05-01T23:50:35.195Z,2.95
2023-05-01T23:53:11.612Z,3.10
2023-05-01T23:55:54.575Z,3.30
2023-05-01T23:58:35.202Z,3.03
